Time;durP1;ratioP1;P1;durP2;ratioP2;P2;SDS_P1;SDS_P2;PMS_P1;PMS_P2;Temp;Humidity;BMP_temperature;BMP_pressure;BME280_temperature;BME280_humidity;BME280_pressure;Samples;Min_cycle;Max_cycle;Signal;HPM_P1;HPM_P2
2022/07/23 00:01:27;;;;;;;3.62;3.33;;;24.40;55.70;;;;;;949176;150;28678;-76
2022/07/23 00:03:54;;;;;;;2.90;2.70;;;24.40;55.90;;;;;;941454;151;27294;-77
2022/07/23 00:06:19;;;;;;;4.62;3.80;;;24.40;55.80;;;;;;943336;150;28101;-76
2022/07/23 00:08:45;;;;;;;3.30;3.10;;;24.40;56.00;;;;;;943680;148;27264;-76
2022/07/23 00:11:12;;;;;;;3.40;3.10;;;24.30;56.00;;;;;;945185;149;27323;-76
2022/07/23 00:13:38;;;;;;;4.37;3.65;;;24.30;56.10;;;;;;948928;148;27414;-76
2022/07/23 00:16:05;;;;;;;3.10;2.90;;;24.20;56.10;;;;;;948940;148;27801;-75
2022/07/23 00:18:31;;;;;;;3.42;3.17;;;24.20;56.20;;;;;;946301;148;27407;-76
2022/07/23 00:20:58;;;;;;;3.47;3.27;;;24.20;56.30;;;;;;943362;148;27416;-76
2022/07/23 00:23:25;;;;;;;3.65;3.35;;;24.10;56.40;;;;;;943121;148;27470;-76
2022/07/23 00:25:51;;;;;;;3.40;3.12;;;24.10;56.60;;;;;;942901;148;27418;-76
2022/07/23 00:28:18;;;;;;;3.47;3.17;;;24.00;56.60;;;;;;943328;148;27453;-76
2022/07/23 00:30:44;;;;;;;3.25;3.05;;;24.00;56.80;;;;;;944052;148;27243;-76
2022/07/23 00:33:11;;;;;;;3.20;2.98;;;23.90;56.90;;;;;;944054;148;27366;-76
2022/07/23 00:35:40;;;;;;;3.37;3.08;;;23.90;57.10;;;;;;943146;148;27387;-75
2022/07/23 00:38:04;;;;;;;3.62;3.37;;;23.80;57.20;;;;;;943671;148;27341;-76
2022/07/23 00:40:31;;;;;;;3.50;3.20;;;23.80;57.40;;;;;;945449;148;27426;-76
2022/07/23 00:42:58;;;;;;;3.30;3.00;;;23.80;57.50;;;;;;942563;148;27821;-76
2022/07/23 00:45:24;;;;;;;3.50;3.00;;;23.80;57.60;;;;;;945277;148;27394;-76
2022/07/23 00:47:51;;;;;;;3.65;3.35;;;23.80;57.70;;;;;;944868;148;27404;-76
2022/07/23 00:50:17;;;;;;;3.00;2.80;;;23.80;57.70;;;;;;946070;148;27361;-77
2022/07/23 00:52:44;;;;;;;3.35;3.05;;;23.70;57.80;;;;;;944987;148;27388;-76
2022/07/23 00:55:10;;;;;;;3.08;2.85;;;23.70;57.90;;;;;;945998;148;27275;-76
2022/07/23 00:57:37;;;;;;;3.00;2.80;;;23.70;58.00;;;;;;943136;148;27454;-76
2022/07/23 01:00:03;;;;;;;3.67;3.37;;;23.60;58.00;;;;;;943411;148;27329;-76
2022/07/23 01:02:30;;;;;;;3.92;3.60;;;23.60;58.70;;;;;;943536;148;27401;-76
2022/07/23 01:04:57;;;;;;;3.67;3.37;;;23.60;58.20;;;;;;941912;148;27361;-76
2022/07/23 01:07:23;;;;;;;3.60;3.30;;;23.50;58.30;;;;;;942645;148;27415;-76
2022/07/23 01:09:50;;;;;;;3.65;3.37;;;23.50;58.40;;;;;;942902;148;27904;-76
2022/07/23 01:12:16;;;;;;;4.03;3.67;;;23.50;58.50;;;;;;943655;148;27327;-76
2022/07/23 01:14:43;;;;;;;9.43;3.33;;;23.40;58.60;;;;;;944833;148;27414;-76
2022/07/23 01:17:10;;;;;;;3.72;3.20;;;23.40;59.20;;;;;;944245;148;27367;-76
2022/07/23 01:19:36;;;;;;;4.03;3.22;;;23.40;58.80;;;;;;943499;148;28879;-76
2022/07/23 01:22:03;;;;;;;3.92;3.62;;;23.30;59.00;;;;;;942200;148;27715;-76
2022/07/23 01:24:29;;;;;;;3.25;3.05;;;23.30;59.00;;;;;;944087;148;27337;-76
2022/07/23 01:26:56;;;;;;;3.87;3.47;;;23.20;59.00;;;;;;943768;148;27261;-76
2022/07/23 01:29:23;;;;;;;3.58;3.27;;;23.20;59.20;;;;;;944210;148;27370;-76
2022/07/23 01:31:49;;;;;;;3.72;3.42;;;23.10;59.20;;;;;;942932;148;27370;-76
2022/07/23 01:34:16;;;;;;;3.58;3.30;;;23.10;59.40;;;;;;944874;148;27294;-76
2022/07/23 01:36:42;;;;;;;3.60;3.30;;;23.10;59.50;;;;;;943434;148;27283;-76
2022/07/23 01:39:09;;;;;;;3.77;3.47;;;23.00;59.60;;;;;;943783;148;27423;-75
2022/07/23 01:41:35;;;;;;;3.62;3.33;;;23.00;59.70;;;;;;943927;148;27390;-75
2022/07/23 01:44:02;;;;;;;3.65;3.35;;;22.90;59.80;;;;;;942684;148;27447;-76
2022/07/23 01:46:29;;;;;;;3.87;3.58;;;22.90;59.90;;;;;;944344;148;28510;-76
2022/07/23 01:48:55;;;;;;;4.03;3.40;;;22.80;60.00;;;;;;944110;148;27347;-76
2022/07/23 01:51:22;;;;;;;3.90;3.60;;;22.80;60.20;;;;;;944640;148;27453;-75
2022/07/23 01:53:48;;;;;;;3.70;3.40;;;22.80;60.40;;;;;;942465;148;27387;-76
2022/07/23 01:56:15;;;;;;;4.65;3.37;;;22.80;60.50;;;;;;944758;148;27874;-76
2022/07/23 01:58:42;;;;;;;3.58;2.98;;;22.80;60.80;;;;;;944058;148;27429;-76
2022/07/23 02:01:08;;;;;;;3.42;3.22;;;22.70;60.90;;;;;;945027;148;27384;-76
2022/07/23 02:03:35;;;;;;;3.85;3.52;;;22.70;61.30;;;;;;944321;148;27368;-77
2022/07/23 02:06:01;;;;;;;4.87;3.50;;;22.70;61.60;;;;;;945533;148;27322;-76
2022/07/23 02:08:28;;;;;;;4.08;3.70;;;22.70;61.90;;;;;;943907;148;27370;-75
2022/07/23 02:10:55;;;;;;;3.37;3.08;;;22.70;62.10;;;;;;942961;148;27370;-76
2022/07/23 02:13:21;;;;;;;3.70;3.40;;;22.70;62.20;;;;;;943675;148;27395;-76
2022/07/23 02:15:48;;;;;;;3.95;3.62;;;22.60;62.40;;;;;;946000;148;27355;-76
2022/07/23 02:18:14;;;;;;;4.30;3.90;;;22.60;62.50;;;;;;943844;148;27291;-76
2022/07/23 02:20:41;;;;;;;3.33;3.02;;;22.60;62.90;;;;;;943210;148;27306;-76
2022/07/23 02:23:07;;;;;;;3.85;3.55;;;22.50;63.10;;;;;;944495;148;27471;-77
2022/07/23 02:25:34;;;;;;;4.00;3.10;;;22.40;63.30;;;;;;942383;148;27328;-74
2022/07/23 02:28:01;;;;;;;4.60;3.62;;;22.40;63.40;;;;;;943681;148;27310;-74
2022/07/23 02:30:27;;;;;;;3.55;3.25;;;22.40;63.50;;;;;;944885;148;27378;-74
2022/07/23 02:32:54;;;;;;;3.87;3.42;;;22.40;63.70;;;;;;943939;148;27331;-74
2022/07/23 02:35:20;;;;;;;3.85;3.45;;;22.30;63.80;;;;;;944713;148;27361;-74
2022/07/23 02:37:47;;;;;;;5.25;3.92;;;22.20;64.10;;;;;;944897;148;27418;-74
2022/07/23 02:40:14;;;;;;;4.55;3.83;;;22.20;64.20;;;;;;944153;148;27299;-74
2022/07/23 02:42:40;;;;;;;4.70;4.25;;;22.20;64.40;;;;;;944004;148;27359;-72
2022/07/23 02:45:07;;;;;;;4.47;3.90;;;22.20;64.60;;;;;;946525;148;27318;-73
2022/07/23 02:47:33;;;;;;;4.30;3.58;;;22.10;64.60;;;;;;945037;148;27425;-73
2022/07/23 02:50:00;;;;;;;4.05;3.75;;;22.10;64.90;;;;;;943840;148;27905;-72
2022/07/23 02:52:27;;;;;;;4.65;3.75;;;22.00;65.00;;;;;;942380;148;27445;-72
2022/07/23 02:54:53;;;;;;;4.72;4.33;;;22.00;65.30;;;;;;944271;148;27339;-73
2022/07/23 02:57:20;;;;;;;4.33;4.03;;;21.90;65.40;;;;;;944428;148;27297;-74
2022/07/23 02:59:46;;;;;;;4.78;4.37;;;21.80;65.70;;;;;;943881;148;27303;-76
2022/07/23 03:02:13;;;;;;;4.53;4.12;;;21.80;66.00;;;;;;946247;148;27418;-73
2022/07/23 03:04:42;;;;;;;4.53;4.12;;;21.80;66.30;;;;;;943499;148;27725;-75
2022/07/23 03:07:06;;;;;;;4.80;4.40;;;21.70;66.50;;;;;;943978;148;27306;-74
2022/07/23 03:09:33;;;;;;;4.78;4.35;;;21.70;66.80;;;;;;944618;148;27427;-74
2022/07/23 03:11:59;;;;;;;4.90;4.25;;;21.60;66.90;;;;;;944453;148;27301;-74
2022/07/23 03:14:27;;;;;;;4.55;4.17;;;21.60;67.10;;;;;;944192;148;27341;-73
2022/07/23 03:16:53;;;;;;;5.10;4.67;;;21.60;67.30;;;;;;943928;148;27426;-74
2022/07/23 03:19:19;;;;;;;5.37;4.87;;;21.60;67.70;;;;;;945017;148;27332;-74
2022/07/23 03:21:46;;;;;;;4.67;4.28;;;21.60;67.80;;;;;;945349;148;27395;-75
2022/07/23 03:24:12;;;;;;;5.30;4.80;;;21.60;68.00;;;;;;941721;148;27314;-74
2022/07/23 03:26:39;;;;;;;4.85;4.28;;;21.60;68.10;;;;;;945211;148;27303;-76
2022/07/23 03:29:05;;;;;;;5.20;4.70;;;21.60;68.20;;;;;;942486;148;27347;-74
2022/07/23 03:31:32;;;;;;;7.12;5.20;;;21.60;68.30;;;;;;944189;148;27375;-73
2022/07/23 03:33:59;;;;;;;6.03;4.50;;;21.60;68.30;;;;;;944331;148;27274;-73
2022/07/23 03:36:25;;;;;;;5.17;4.78;;;21.60;68.50;;;;;;944548;148;27387;-74
2022/07/23 03:38:52;;;;;;;5.97;4.55;;;21.60;68.50;;;;;;943517;148;27317;-75
2022/07/23 03:41:18;;;;;;;5.53;5.00;;;21.60;68.70;;;;;;944223;148;27454;-73
2022/07/23 03:43:45;;;;;;;5.22;4.70;;;21.60;68.80;;;;;;943100;148;28425;-74
2022/07/23 03:46:12;;;;;;;5.00;4.60;;;21.60;68.90;;;;;;945245;148;27414;-74
2022/07/23 03:48:38;;;;;;;4.95;4.55;;;21.60;69.00;;;;;;943679;148;27831;-74
2022/07/23 03:51:05;;;;;;;5.05;4.55;;;21.60;69.10;;;;;;945453;148;27286;-75
2022/07/23 03:53:31;;;;;;;4.62;4.33;;;21.60;69.30;;;;;;943763;148;27504;-74
2022/07/23 03:55:58;;;;;;;5.40;4.90;;;21.60;70.10;;;;;;943849;148;27350;-74
2022/07/23 03:58:25;;;;;;;5.78;5.17;;;21.60;69.60;;;;;;942709;148;27412;-74
2022/07/23 04:00:51;;;;;;;5.70;5.12;;;21.60;69.70;;;;;;945074;148;27294;-74
2022/07/23 04:03:18;;;;;;;5.47;4.60;;;21.50;69.60;;;;;;944982;148;27331;-74
2022/07/23 04:05:44;;;;;;;6.67;4.87;;;21.50;69.60;;;;;;937428;150;27338;-75
2022/07/23 04:08:11;;;;;;;5.10;4.40;;;21.50;69.70;;;;;;938049;150;27468;-74
2022/07/23 04:10:37;;;;;;;5.87;5.25;;;21.50;69.90;;;;;;935854;150;28276;-74
2022/07/23 04:13:04;;;;;;;4.90;4.20;;;21.50;70.10;;;;;;936565;150;27430;-74
2022/07/23 04:15:31;;;;;;;5.30;4.80;;;21.40;70.30;;;;;;934362;150;27302;-74
2022/07/23 04:17:57;;;;;;;4.72;4.33;;;21.40;70.60;;;;;;936243;150;27377;-76
2022/07/23 04:20:24;;;;;;;4.97;4.58;;;21.40;70.80;;;;;;935671;150;27418;-73
2022/07/23 04:22:50;;;;;;;5.33;4.83;;;21.40;71.00;;;;;;936354;150;27317;-73
2022/07/23 04:25:17;;;;;;;6.37;5.67;;;21.40;71.20;;;;;;935351;150;27379;-73
2022/07/23 04:27:44;;;;;;;5.30;4.80;;;21.50;71.50;;;;;;934104;150;27308;-73
2022/07/23 04:30:10;;;;;;;5.72;5.22;;;21.50;71.50;;;;;;935077;150;27348;-74
2022/07/23 04:32:37;;;;;;;6.47;5.35;;;21.50;71.80;;;;;;935361;150;27436;-74
2022/07/23 04:35:03;;;;;;;5.72;4.92;;;21.60;71.90;;;;;;937908;150;27428;-74
2022/07/23 04:37:30;;;;;;;6.37;5.80;;;21.60;72.00;;;;;;933400;150;27432;-74
2022/07/23 04:39:56;;;;;;;6.05;5.45;;;21.70;72.00;;;;;;936053;150;27288;-74
2022/07/23 04:42:23;;;;;;;5.12;4.72;;;21.80;72.00;;;;;;936287;149;27340;-75
2022/07/23 04:44:50;;;;;;;5.40;4.85;;;21.80;71.80;;;;;;936542;149;27291;-76
2022/07/23 04:47:16;;;;;;;5.45;4.95;;;21.90;71.80;;;;;;937655;150;27347;-75
2022/07/23 04:49:43;;;;;;;5.72;5.22;;;21.90;71.70;;;;;;936423;150;27353;-74
2022/07/23 04:52:09;;;;;;;6.33;5.20;;;22.00;71.70;;;;;;937562;150;27288;-74
2022/07/23 04:54:36;;;;;;;5.78;4.83;;;22.00;71.50;;;;;;935991;150;27344;-74
2022/07/23 04:57:03;;;;;;;5.78;5.08;;;22.00;71.40;;;;;;934447;150;27375;-75
2022/07/23 04:59:29;;;;;;;5.65;5.08;;;22.00;71.40;;;;;;936623;150;27404;-75
2022/07/23 05:01:56;;;;;;;5.47;4.97;;;21.90;71.50;;;;;;937686;150;27355;-74
2022/07/23 05:04:22;;;;;;;5.67;5.17;;;21.90;71.90;;;;;;936928;150;27692;-74
2022/07/23 05:06:49;;;;;;;6.55;5.78;;;22.00;72.20;;;;;;941143;151;27322;-75
2022/07/23 05:09:16;;;;;;;5.72;5.22;;;22.10;72.70;;;;;;939271;148;27336;-75
2022/07/23 05:11:42;;;;;;;5.75;5.25;;;22.20;73.70;;;;;;941203;151;27430;-75
2022/07/23 05:14:12;;;;;;;6.33;5.78;;;22.30;74.40;;;;;;941223;151;27368;-76
2022/07/23 05:16:35;;;;;;;5.67;5.00;;;22.60;74.80;;;;;;941676;148;27306;-74
2022/07/23 05:19:02;;;;;;;5.47;5.00;;;22.90;74.70;;;;;;941452;149;27325;-74
2022/07/23 05:21:29;;;;;;;5.67;5.20;;;23.20;73.50;;;;;;940066;151;27353;-75
2022/07/23 05:23:55;;;;;;;4.92;4.50;;;23.50;72.20;;;;;;941093;151;27386;-76
2022/07/23 05:26:22;;;;;;;5.78;4.42;;;23.60;70.90;;;;;;939836;151;27346;-76
2022/07/23 05:28:48;;;;;;;5.65;5.05;;;23.80;70.70;;;;;;938704;151;28250;-74
2022/07/23 05:31:15;;;;;;;4.67;4.35;;;23.80;69.20;;;;;;940836;151;27280;-74
2022/07/23 05:33:41;;;;;;;6.22;4.92;;;23.80;68.70;;;;;;939119;151;27424;-74
2022/07/23 05:36:08;;;;;;;5.05;4.62;;;23.80;68.40;;;;;;939887;151;27400;-76
2022/07/23 05:38:35;;;;;;;5.00;4.60;;;23.80;68.10;;;;;;938740;151;27360;-76
2022/07/23 05:41:01;;;;;;;4.92;4.53;;;23.70;67.90;;;;;;941258;151;27370;-73
2022/07/23 05:43:28;;;;;;;5.50;5.00;;;23.60;67.60;;;;;;937241;151;27364;-74
2022/07/23 05:45:54;;;;;;;5.30;4.80;;;23.50;67.70;;;;;;941045;151;27397;-74
2022/07/23 05:48:21;;;;;;;4.65;4.25;;;23.40;67.80;;;;;;938335;151;27386;-74
2022/07/23 05:50:48;;;;;;;5.50;4.60;;;23.40;68.10;;;;;;940949;151;27405;-76
2022/07/23 05:53:14;;;;;;;5.53;4.62;;;23.20;68.20;;;;;;938576;151;27561;-74
2022/07/23 05:55:41;;;;;;;5.40;5.00;;;23.20;68.50;;;;;;939021;151;27353;-74
2022/07/23 05:58:08;;;;;;;5.30;4.80;;;23.10;68.60;;;;;;940416;151;27364;-74
2022/07/23 06:00:34;;;;;;;5.37;4.87;;;23.10;68.90;;;;;;941343;151;27319;-74
2022/07/23 06:03:00;;;;;;;5.35;4.85;;;23.00;69.10;;;;;;938701;151;27332;-76
2022/07/23 06:05:27;;;;;;;4.83;4.33;;;23.00;69.30;;;;;;939530;150;27390;-74
2022/07/23 06:07:54;;;;;;;5.22;4.72;;;23.00;69.50;;;;;;934690;150;28128;-74
2022/07/23 06:10:20;;;;;;;5.42;4.92;;;23.00;69.70;;;;;;937831;150;27311;-74
2022/07/23 06:12:47;;;;;;;5.47;4.97;;;23.00;69.90;;;;;;933133;150;27414;-74
2022/07/23 06:15:13;;;;;;;5.10;4.70;;;23.00;70.20;;;;;;935474;150;27320;-74
2022/07/23 06:17:40;;;;;;;5.12;4.65;;;23.10;70.50;;;;;;935169;150;27445;-74
2022/07/23 06:20:07;;;;;;;4.70;4.28;;;23.20;71.10;;;;;;935951;150;27420;-74
2022/07/23 06:22:33;;;;;;;5.10;4.60;;;23.30;72.00;;;;;;934598;150;27652;-74
2022/07/23 06:25:00;;;;;;;4.58;4.17;;;23.50;71.90;;;;;;936867;150;27356;-75
2022/07/23 06:27:27;;;;;;;4.62;4.15;;;23.80;71.50;;;;;;936115;150;27355;-76
2022/07/23 06:29:53;;;;;;;4.25;3.95;;;24.00;70.80;;;;;;936397;150;27305;-76
2022/07/23 06:32:20;;;;;;;4.92;4.53;;;24.30;70.50;;;;;;937129;150;27465;-75
2022/07/23 06:34:46;;;;;;;5.20;4.70;;;24.60;71.30;;;;;;934304;150;27355;-74
2022/07/23 06:37:13;;;;;;;4.37;4.00;;;25.00;71.60;;;;;;936922;150;27367;-74
2022/07/23 06:39:40;;;;;;;4.70;4.35;;;25.50;71.20;;;;;;935616;150;27284;-75
2022/07/23 06:42:06;;;;;;;4.67;4.28;;;25.90;69.60;;;;;;934844;150;27427;-74
2022/07/23 06:44:33;;;;;;;4.90;4.33;;;26.40;67.80;;;;;;936731;150;27453;-78
2022/07/23 06:46:59;;;;;;;4.22;3.92;;;26.60;65.90;;;;;;935471;150;27352;-75
2022/07/23 06:49:26;;;;;;;4.85;4.37;;;26.80;64.60;;;;;;935841;150;27394;-75
2022/07/23 06:51:52;;;;;;;4.22;3.92;;;26.90;63.70;;;;;;938085;150;27350;-75
2022/07/23 06:54:19;;;;;;;4.12;3.77;;;26.90;63.20;;;;;;935293;150;27247;-74
2022/07/23 06:56:46;;;;;;;4.80;4.40;;;26.90;62.90;;;;;;936888;150;27422;-79
2022/07/23 06:59:12;;;;;;;4.20;3.90;;;26.90;62.50;;;;;;935726;150;27352;-77
2022/07/23 07:01:39;;;;;;;4.45;4.15;;;26.90;62.20;;;;;;936840;150;28072;-74
2022/07/23 07:04:05;;;;;;;4.65;4.25;;;26.90;61.80;;;;;;935651;150;27386;-75
2022/07/23 07:06:32;;;;;;;4.45;4.05;;;26.90;62.80;;;;;;936261;150;27391;-75
2022/07/23 07:08:59;;;;;;;4.60;4.20;;;27.00;63.70;;;;;;934259;150;27309;-79
2022/07/23 07:11:25;;;;;;;4.28;3.92;;;27.30;65.40;;;;;;934778;150;27480;-77
2022/07/23 07:13:52;;;;;;;4.35;4.05;;;27.90;66.40;;;;;;935417;149;27460;-75
2022/07/23 07:16:18;;;;;;;4.17;3.80;;;28.60;66.50;;;;;;936061;150;27301;-76
2022/07/23 07:18:45;;;;;;;4.95;4.00;;;29.50;65.90;;;;;;934510;150;27342;-75
2022/07/23 07:21:12;;;;;;;4.28;3.85;;;30.40;64.50;;;;;;935364;150;27277;-77
2022/07/23 07:23:38;;;;;;;3.62;3.33;;;31.30;62.10;;;;;;934462;150;27402;-78
2022/07/23 07:26:05;;;;;;;3.45;3.15;;;32.10;60.60;;;;;;935884;150;26271;-79
2022/07/23 07:28:31;;;;;;;3.20;2.95;;;33.00;59.80;;;;;;934913;150;28677;-75
2022/07/23 07:30:58;;;;;;;3.60;3.30;;;33.90;58.80;;;;;;937553;150;26192;-78
2022/07/23 07:33:24;;;;;;;3.40;3.10;;;34.80;57.40;;;;;;935592;150;26317;-77
2022/07/23 07:35:51;;;;;;;3.30;3.00;;;35.60;56.00;;;;;;934829;151;26187;-75
2022/07/23 07:38:18;;;;;;;3.50;3.30;;;36.50;54.60;;;;;;937205;150;26256;-75
2022/07/23 07:40:44;;;;;;;3.70;3.40;;;37.30;53.40;;;;;;935992;150;26313;-74
2022/07/23 07:43:11;;;;;;;3.83;3.52;;;38.10;52.00;;;;;;934531;149;26244;-76
2022/07/23 07:45:37;;;;;;;4.80;4.33;;;38.80;50.80;;;;;;935445;149;27325;-75
2022/07/23 07:48:04;;;;;;;3.70;3.50;;;39.40;49.70;;;;;;938053;149;26350;-76
2022/07/23 07:50:31;;;;;;;3.75;3.12;;;40.00;48.40;;;;;;935279;149;26244;-75
2022/07/23 07:52:57;;;;;;;4.03;3.70;;;40.60;47.40;;;;;;933734;149;26386;-75
2022/07/23 07:55:24;;;;;;;4.17;3.37;;;41.10;46.20;;;;;;934749;150;26255;-75
2022/07/23 07:57:50;;;;;;;3.37;3.17;;;41.60;45.30;;;;;;935989;150;26255;-74
2022/07/23 08:00:17;;;;;;;3.12;2.92;;;42.10;44.40;;;;;;936458;150;26244;-75
2022/07/23 08:02:44;;;;;;;3.60;3.30;;;42.50;43.50;;;;;;935748;150;26259;-78
2022/07/23 08:05:10;;;;;;;3.27;2.98;;;42.80;42.50;;;;;;936155;149;26318;-74
2022/07/23 08:07:38;;;;;;;5.62;2.75;;;43.20;41.70;;;;;;936166;149;26278;-75
2022/07/23 08:10:03;;;;;;;2.60;2.40;;;43.50;40.90;;;;;;935613;150;26261;-74
2022/07/23 08:12:30;;;;;;;2.95;2.75;;;43.70;40.20;;;;;;936395;150;26249;-76
2022/07/23 08:14:56;;;;;;;2.75;2.55;;;43.90;39.70;;;;;;934065;150;26344;-77
2022/07/23 08:17:23;;;;;;;2.95;2.65;;;44.20;39.20;;;;;;937664;150;26332;-75
2022/07/23 08:19:50;;;;;;;2.83;2.62;;;44.40;38.70;;;;;;936030;149;26898;-75
2022/07/23 08:22:16;;;;;;;2.95;2.75;;;44.60;38.30;;;;;;935544;149;26315;-75
2022/07/23 08:24:43;;;;;;;3.75;3.27;;;44.90;37.30;;;;;;937394;150;26329;-75
2022/07/23 08:27:09;;;;;;;3.20;3.00;;;44.90;35.80;;;;;;934366;150;26179;-75
2022/07/23 08:29:36;;;;;;;3.50;3.20;;;44.90;35.70;;;;;;936663;150;26264;-75
2022/07/23 08:32:03;;;;;;;3.02;2.83;;;44.70;35.40;;;;;;934640;150;26267;-74
2022/07/23 08:34:29;;;;;;;3.05;2.85;;;44.40;35.20;;;;;;936777;150;26323;-74
2022/07/23 08:36:56;;;;;;;2.60;2.40;;;44.10;35.20;;;;;;934137;149;26191;-75
2022/07/23 08:39:22;;;;;;;2.95;2.50;;;43.70;35.00;;;;;;937184;150;26212;-76
2022/07/23 08:41:49;;;;;;;3.37;3.05;;;43.30;34.80;;;;;;935732;150;28205;-77
2022/07/23 08:44:16;;;;;;;3.22;3.02;;;42.80;35.00;;;;;;936589;149;27453;-75
2022/07/23 08:46:42;;;;;;;3.33;3.02;;;42.20;34.70;;;;;;935415;150;27280;-75
2022/07/23 08:49:09;;;;;;;3.60;3.30;;;41.60;34.60;;;;;;936058;149;26337;-78
2022/07/23 08:51:35;;;;;;;3.17;2.77;;;40.90;34.60;;;;;;934656;150;27356;-74
2022/07/23 08:54:02;;;;;;;3.65;3.35;;;40.20;35.20;;;;;;933761;149;26259;-78
2022/07/23 08:56:29;;;;;;;3.02;2.80;;;39.50;35.80;;;;;;936195;150;27404;-75
2022/07/23 08:58:55;;;;;;;3.35;2.80;;;38.80;36.50;;;;;;935182;150;27962;-74
2022/07/23 09:01:22;;;;;;;3.22;2.92;;;38.30;37.30;;;;;;933868;149;26219;-74
2022/07/23 09:03:48;;;;;;;3.12;2.92;;;37.90;37.90;;;;;;936388;150;26286;-74
2022/07/23 09:06:15;;;;;;;3.15;2.90;;;37.60;38.40;;;;;;933419;150;26259;-76
2022/07/23 09:08:41;;;;;;;2.98;2.77;;;37.70;39.30;;;;;;941115;148;26304;-74
2022/07/23 09:11:11;;;;;;;4.37;3.00;;;37.90;40.00;;;;;;945851;148;27311;-74
2022/07/23 09:13:46;;;;;;;3.10;2.90;;;38.30;40.00;;;;;;947566;148;27404;-74
2022/07/23 09:16:12;;;;;;;3.30;3.00;;;38.90;40.00;;;;;;941054;148;26274;-74
2022/07/23 09:18:39;;;;;;;2.85;2.65;;;39.50;39.60;;;;;;944319;148;26783;-75
2022/07/23 09:21:08;;;;;;;3.52;2.80;;;40.10;38.80;;;;;;945040;148;26222;-75
2022/07/23 09:23:50;;;;;;;2.60;2.40;;;40.70;38.50;;;;;;945214;148;26682;-75
2022/07/23 09:26:19;;;;;;;2.87;2.22;;;41.40;37.90;;;;;;943414;148;26347;-77
2022/07/23 09:28:55;;;;;;;2.70;2.50;;;41.90;37.20;;;;;;936697;148;26285;-75
2022/07/23 09:31:21;;;;;;;2.92;2.60;;;42.50;36.80;;;;;;943137;148;26234;-75
2022/07/23 09:33:48;;;;;;;2.40;2.30;;;43.00;36.10;;;;;;943293;148;26227;-75
2022/07/23 09:36:15;;;;;;;2.30;2.20;;;43.40;35.50;;;;;;944869;148;26185;-75
2022/07/23 09:38:50;;;;;;;2.33;2.12;;;43.80;35.00;;;;;;942069;148;26256;-74
2022/07/23 09:41:17;;;;;;;2.60;2.40;;;44.20;34.40;;;;;;943746;148;26368;-73
2022/07/23 09:43:43;;;;;;;2.15;1.92;;;44.50;34.00;;;;;;941868;148;26262;-74
2022/07/23 09:46:25;;;;;;;2.80;2.60;;;44.80;33.40;;;;;;944579;148;26183;-74
2022/07/23 09:48:56;;;;;;;2.60;2.40;;;45.10;32.80;;;;;;945242;148;26322;-75
2022/07/23 09:51:31;;;;;;;2.45;2.30;;;45.30;32.30;;;;;;943764;148;26351;-74
2022/07/23 09:53:54;;;;;;;2.50;2.30;;;45.30;31.90;;;;;;942494;148;26260;-74
2022/07/23 09:56:20;;;;;;;3.10;2.83;;;45.30;31.60;;;;;;943899;148;26246;-74
2022/07/23 09:58:48;;;;;;;2.72;2.52;;;45.30;30.30;;;;;;943705;148;26194;-74
2022/07/23 10:01:14;;;;;;;2.58;2.47;;;44.90;30.40;;;;;;944630;148;26234;-74
2022/07/23 10:03:40;;;;;;;2.98;2.75;;;44.50;30.20;;;;;;944675;148;26308;-75
2022/07/23 10:06:07;;;;;;;2.67;2.47;;;44.10;30.20;;;;;;942331;148;26290;-75
2022/07/23 10:08:33;;;;;;;2.50;2.30;;;43.70;30.90;;;;;;939601;148;26409;-74
2022/07/23 10:11:00;;;;;;;2.35;2.20;;;43.30;31.40;;;;;;938630;150;26309;-74
2022/07/23 10:16:11;;;;;;;2.47;2.27;;;42.60;31.10;;;;;;937019;150;27390;-73
2022/07/23 10:18:38;;;;;;;2.60;2.50;;;42.20;31.00;;;;;;935045;150;26333;-74
2022/07/23 10:21:04;;;;;;;2.95;2.45;;;41.80;31.00;;;;;;934983;150;26672;-73
2022/07/23 10:23:43;;;;;;;4.37;3.85;;;41.40;31.40;;;;;;935955;150;26410;-73
2022/07/23 10:26:12;;;;;;;2.95;2.75;;;40.90;31.80;;;;;;935806;150;26353;-73
2022/07/23 10:28:42;;;;;;;2.85;2.72;;;40.30;31.20;;;;;;936200;150;26189;-75
2022/07/23 10:31:14;;;;;;;2.75;2.50;;;39.80;31.60;;;;;;934590;149;27439;-75
2022/07/23 10:34:14;;;;;;;3.85;3.55;;;39.20;31.90;;;;;;936177;149;27826;-74
2022/07/23 10:36:47;;;;;;;3.40;3.10;;;38.60;32.20;;;;;;883805;159;27459;-74
2022/07/23 10:39:31;;;;;;;2.95;2.50;;;38.00;32.70;;;;;;897915;157;27517;-73
2022/07/23 10:42:13;;;;;;;3.77;3.05;;;37.60;33.30;;;;;;926859;147;27306;-73
2022/07/23 10:44:40;;;;;;;3.10;2.90;;;37.10;33.70;;;;;;945773;150;27283;-73
2022/07/23 10:47:15;;;;;;;3.40;3.10;;;36.90;34.00;;;;;;934826;150;27815;-76
2022/07/23 10:49:35;;;;;;;2.83;2.55;;;36.70;34.00;;;;;;946861;150;27440;-73
2022/07/23 10:52:14;;;;;;;3.22;3.02;;;36.40;34.10;;;;;;947944;147;27483;-73
2022/07/23 10:54:57;;;;;;;3.22;2.80;;;36.20;34.20;;;;;;949828;147;27297;-73
2022/07/23 10:57:23;;;;;;;3.20;3.00;;;36.00;34.50;;;;;;930304;150;27482;-73
2022/07/23 11:00:11;;;;;;;3.25;3.05;;;35.80;34.90;;;;;;940765;149;27323;-75
2022/07/23 11:02:28;;;;;;;3.05;2.60;;;35.60;35.10;;;;;;936910;149;27410;-76
2022/07/23 11:04:55;;;;;;;2.70;2.50;;;35.40;35.40;;;;;;939572;149;27734;-75
2022/07/23 11:07:21;;;;;;;3.52;3.17;;;35.30;35.50;;;;;;937462;149;27320;-74
2022/07/23 11:09:48;;;;;;;3.25;2.50;;;35.30;35.40;;;;;;940861;149;27382;-74
2022/07/23 11:12:20;;;;;;;3.20;2.90;;;35.20;35.30;;;;;;943209;150;27233;-74
2022/07/23 11:15:06;;;;;;;2.90;2.70;;;35.10;35.30;;;;;;945264;149;27423;-77
2022/07/23 11:17:35;;;;;;;2.85;2.65;;;35.00;35.40;;;;;;943376;148;27358;-74
2022/07/23 11:20:11;;;;;;;3.10;2.80;;;34.90;35.40;;;;;;942935;150;27336;-74
2022/07/23 11:22:37;;;;;;;2.92;2.72;;;34.80;35.50;;;;;;945524;150;27299;-73
2022/07/23 11:25:03;;;;;;;3.00;2.70;;;34.60;35.50;;;;;;942502;150;27303;-74
2022/07/23 11:27:42;;;;;;;2.80;2.52;;;34.50;35.80;;;;;;942927;150;27798;-74
2022/07/23 11:30:08;;;;;;;3.02;2.70;;;34.40;35.90;;;;;;942225;150;27403;-73
2022/07/23 11:32:36;;;;;;;2.90;2.70;;;34.30;36.10;;;;;;943071;150;27295;-74
2022/07/23 11:35:02;;;;;;;3.40;3.10;;;34.20;36.10;;;;;;942374;150;27294;-73
2022/07/23 11:37:34;;;;;;;3.15;2.80;;;34.10;36.20;;;;;;944577;148;27311;-77
2022/07/23 11:40:01;;;;;;;2.92;2.72;;;34.10;36.40;;;;;;944603;150;27456;-74
2022/07/23 11:42:27;;;;;;;3.40;3.20;;;34.00;36.30;;;;;;943412;150;27349;-73
2022/07/23 11:44:54;;;;;;;3.12;2.87;;;34.00;36.40;;;;;;944984;150;27412;-74
2022/07/23 11:47:23;;;;;;;2.90;2.70;;;33.90;36.30;;;;;;942999;150;27431;-73
2022/07/23 11:49:56;;;;;;;2.75;2.55;;;33.80;36.20;;;;;;943834;150;27434;-75
2022/07/23 11:52:22;;;;;;;3.15;2.95;;;33.70;36.20;;;;;;943672;150;27406;-77
2022/07/23 11:54:52;;;;;;;2.80;2.60;;;33.60;36.30;;;;;;944147;149;27342;-74
2022/07/23 11:57:18;;;;;;;2.85;2.65;;;33.50;36.40;;;;;;943780;150;27358;-75
2022/07/23 11:59:45;;;;;;;4.05;3.10;;;33.40;36.50;;;;;;942368;150;27426;-74
2022/07/23 12:02:12;;;;;;;2.83;2.62;;;33.30;36.60;;;;;;944306;150;27499;-74
2022/07/23 12:04:39;;;;;;;2.83;2.62;;;33.30;36.80;;;;;;944121;150;27343;-77
2022/07/23 12:07:05;;;;;;;2.87;2.62;;;33.20;37.10;;;;;;941727;150;27465;-74
2022/07/23 12:09:31;;;;;;;3.10;2.80;;;33.20;37.20;;;;;;941624;148;27371;-73
2022/07/23 12:11:58;;;;;;;2.98;2.77;;;33.30;37.50;;;;;;942453;150;27342;-75
2022/07/23 12:14:25;;;;;;;3.12;2.87;;;33.30;37.40;;;;;;944612;148;27947;-74
2022/07/23 12:17:10;;;;;;;3.95;3.10;;;33.50;37.60;;;;;;942576;148;27315;-78
2022/07/23 12:19:36;;;;;;;3.05;2.75;;;33.60;37.50;;;;;;942341;150;27335;-74
2022/07/23 12:22:03;;;;;;;2.90;2.70;;;33.90;37.50;;;;;;942295;150;27351;-73
2022/07/23 12:24:29;;;;;;;2.65;2.45;;;34.00;37.10;;;;;;943194;150;27355;-73
2022/07/23 12:27:08;;;;;;;3.22;3.02;;;34.10;36.90;;;;;;944018;150;27445;-74
2022/07/23 12:29:35;;;;;;;3.12;2.83;;;34.20;36.60;;;;;;941863;150;27348;-75
2022/07/23 12:32:02;;;;;;;3.00;2.80;;;34.20;36.30;;;;;;943671;150;27292;-75
2022/07/23 12:34:28;;;;;;;3.00;2.80;;;34.20;36.20;;;;;;942320;150;27342;-74
2022/07/23 12:36:54;;;;;;;2.80;2.60;;;34.10;36.20;;;;;;942948;150;27331;-74
2022/07/23 12:39:30;;;;;;;3.10;2.90;;;34.10;36.20;;;;;;944410;149;27315;-73
2022/07/23 12:41:56;;;;;;;3.05;2.85;;;34.00;36.00;;;;;;945348;150;27400;-74
2022/07/23 12:44:23;;;;;;;2.95;2.70;;;33.90;36.20;;;;;;945225;149;27325;-77
2022/07/23 12:46:49;;;;;;;3.02;2.83;;;33.80;36.30;;;;;;943859;150;27345;-74
2022/07/23 12:49:16;;;;;;;3.37;3.10;;;33.80;36.30;;;;;;945021;150;27440;-76
2022/07/23 12:51:43;;;;;;;3.60;3.00;;;33.70;36.20;;;;;;942147;150;27921;-74